Incline Creek, Nevada Weather observations

Data are for observation ending at time listed.
 Day   Time    Ave.   Ave.  Ave.  Vector   Max.   Stn.    Total    Solar   Ave.   Snow 
  of    of     Air    Rel.  Wind   Wind    Wind   Baro.  Precip.   Rad.    Soil   Depth
Year   Day     Temp.  Hum.  Speed  Dir.    Gust   Pres.                    Temp.       
2017   (PST)    F      %     mph   deg.    mph     mb.     in.     W/m2     F      in. 
---------------------------------------------------------------------------------------  
  35   21:00   32.1    83    5.9   116     13.7   999.0    0.00       0    999.0   83.9
  35   21:10   32.2    82    6.6   120     13.9   999.0    0.00       0    999.0   83.9
  35   21:20   32.1    83    6.6   114     14.1   999.0    0.00       0    999.0   83.9
  35   21:30   32.2    83    5.9   116     15.4   999.0    0.00       0    999.0   83.9
  35   21:40   32.1    84    4.9   100     10.7   999.0    0.00       0    999.0   83.9
  35   21:50   32.0    84    5.4   109      9.5   999.0    0.00       0    999.0   83.9
  35   22:00   32.2    83    5.2   117     12.5   999.0    0.00       0    999.0   83.9
  35   22:10   32.1    83    4.9   103     12.0   999.0    0.00       0    999.0   83.9
  35   22:20   32.3    81    5.5   114     12.7   999.0    0.01       0    999.0   83.9
  35   22:30   32.2    82    4.6   117     10.6   999.0    0.00       0    999.0   83.9
  35   22:40   32.1    83    3.4    92      6.7   999.0    0.00       0    999.0   83.9
  35   22:50   31.9    83    4.9   107      9.2   999.0    0.00       0    999.0   83.9
  35   23:00   31.9    84    5.4   126     14.2   999.0    0.00       0    999.0   83.9
  35   23:10   31.6    84    4.8   133      9.3   999.0    0.00       0    999.0   83.9
  35   23:20   31.4    84    5.3   138     12.6   999.0    0.00       0    999.0   83.9
  35   23:30   31.2    82    3.7   132      8.5   999.0    0.00       0    999.0   83.9
  35   23:40   31.2    80    4.6   134     10.3   999.0    0.00       0    999.0   83.9
  35   23:50   31.1    79    3.7   135      9.9   999.0    0.00       0    999.0   83.9
  36    0:00   30.6    80    3.1   127      6.2   999.0    0.00       0    999.0   83.9
  36    0:10   31.0    76    4.3   134      7.9   999.0    0.00       0    999.0   83.9
  36    0:20   29.9    82    2.0   355      3.5   999.0    0.00       0    999.0   83.9
  36    0:30   28.8    86    1.9   308      2.9   999.0    0.00       0    999.0   83.9
  36    0:40   28.5    87    1.5   306      4.0   999.0    0.00       0    999.0   83.9
  36    0:50   28.1    87    1.5   286      2.8   999.0    0.00       0    999.0   83.9
  36    1:00   27.7    88    0.9   332      2.7   999.0    0.00       0    999.0   83.9
  36    1:10   27.5    89    1.3   310      2.7   999.0    0.00       0    999.0   83.9
  36    1:20   27.3    89    1.5   305      3.0   999.0    0.00       0    999.0   83.9
  36    1:30   27.0    90    0.8   358      1.7   999.0    0.00       0    999.0   83.9
  36    1:40   26.7    91    1.2   336      2.7   999.0    0.00       0    999.0   83.9
  36    1:50   26.8    92    1.4   334      2.3   999.0    0.00       0    999.0   83.9
  36    2:00   26.5    91    0.9   351      3.2   999.0    0.00       0    999.0   83.9
  36    2:10   26.2    92    1.3   353      2.5   999.0    0.00       0    999.0   83.9
  36    2:20   26.1    92    1.6   353      2.7   999.0    0.00       0    999.0   83.9
  36    2:30   26.0    92    1.6     2      3.3   999.0    0.00       0    999.0   83.9
  36    2:40   26.0    92    1.3     9      3.7   999.0    0.00       0    999.0   83.9
  36    2:50   26.2    92    1.8   340      3.4   999.0    0.00       0    999.0   83.9
  36    3:00   26.3    91    1.7   351      3.3   999.0    0.00       0    999.0   83.9
  36    3:10   26.1    91    2.0   350      4.0   999.0    0.00       0    999.0   83.9
  36    3:20   25.9    92    1.5     5      3.3   999.0    0.00       0    999.0   83.9
  36    3:30   25.7    92    1.4    15      3.4   999.0    0.00       0    999.0   83.9
  36    3:40   25.8    93    1.6     7      3.5   999.0    0.00       0    999.0   83.9
  36    3:50   25.8    93    1.7   346      3.8   999.0    0.00       0    999.0   83.9
  36    4:00   25.7    93    2.0   344      4.3   999.0    0.00       0    999.0   83.9
  36    4:10   25.8    93    2.0   350      3.9   999.0    0.00       0    999.0   83.9
  36    4:20   25.6    93    1.4    16      2.7   999.0    0.00       0    999.0   83.9
  36    4:30   25.6    94    1.8    14      3.8   999.0    0.00       0    999.0   83.9
  36    4:40   25.8    94    1.5   350      2.5   999.0    0.00       0    999.0   83.9
  36    4:50   26.1    93    1.7   339      3.4   999.0    0.00       0    999.0   83.9
  36    5:00   26.0    93    2.2   327      3.6   999.0    0.00       0    999.0   83.9
  36    5:10   25.9    93    1.5   332      2.6   999.0    0.00       0    999.0   83.9
  36    5:20   25.8    94    2.3   341      4.4   999.0    0.00       0    999.0   83.9
  36    5:30   25.8    93    2.1   344      4.2   999.0    0.00       0    999.0   83.9
  36    5:40   25.4    94    1.5   354      4.0   999.0    0.00       0    999.0   83.9
  36    5:50   25.6    94    2.0   340      3.5   999.0    0.00       0    999.0   83.9
  36    6:00   25.6    93    1.6     3      4.2   999.0    0.00       0    999.0   83.9
  36    6:10   25.7    93    2.0   344      3.4   999.0    0.00       0    999.0   83.9
  36    6:20   25.5    93    1.8   350      2.9   999.0    0.00       0    999.0   83.9
  36    6:30   25.4    93    1.8   338      3.6   999.0    0.00       0    999.0   83.9
  36    6:40   25.6    93    1.5   330      3.3   999.0    0.00       0    999.0   83.9
  36    6:50   25.4    92    1.9   342      3.6   999.0    0.00       0    999.0   83.9
  36    7:00   25.4    92    2.1     4      3.5   999.0    0.00       1    999.0   83.9
  36    7:10   25.3    93    1.8   358      3.9   999.0    0.00       6    999.0   83.9
  36    7:20   25.1    92    1.4    10      2.5   999.0    0.00      19    999.0   83.9
  36    7:30   25.5    93    1.7     5      2.9   999.0    0.00      30    999.0   83.9
  36    7:40   25.7    92    1.8    16      3.3   999.0    0.00      35    999.0   83.9
  36    7:50   26.1    92    2.0   339      3.7   999.0    0.00      47    999.0   83.9
  36    8:00   26.2    90    1.9   352      3.7   999.0    0.00      57    999.0   83.9
  36    8:10   26.8    89    2.2    13      3.9   999.0    0.00      79    999.0   83.9
  36    8:20   27.2    89    1.5   352      3.5   999.0    0.00     114    999.0   83.9
  36    8:30   28.6    86    1.6    27      3.4   999.0    0.00     259    999.0   83.9
  36    8:40   30.8    81    1.6   350      2.9   999.0    0.00     301    999.0   83.9
  36    8:50   31.9    79    1.9     8      3.4   999.0    0.00     314    999.0   83.9
  36    9:00   32.7    77    1.9    26      3.7   999.0    0.00     328    999.0   83.9
  36    9:10   35.1    72    1.4    23      2.7   999.0    0.00     358    999.0   83.9
  36    9:20   35.3    68    2.4    24      3.9   999.0    0.00     325    999.0   83.9
  36    9:30   36.9    62    2.0    43      4.2   999.0    0.00     336    999.0   83.9
  36    9:40   37.7    60    2.8    94      7.9   999.0    0.00     382    999.0   83.9
  36    9:50   39.6    51    4.9   104      8.6   999.0    0.00     362    999.0   83.9
  36   10:00   39.4    49    6.5   109     16.6   999.0    0.00     292    999.0   83.9
  36   10:10   39.0    49    6.9   106     14.2   999.0    0.00     284    999.0   83.9
  36   10:20   39.8    51    7.9   118     15.9   999.0    0.01     323    999.0   83.9
  36   10:30   40.5    52    6.3   124     13.2   999.0    0.00     410    999.0   83.9
  36   10:40   40.6    52    5.8   120     11.8   999.0    0.01     295    999.0   83.9
  36   10:50   40.8    54    5.9   127     12.7   999.0    0.00     362    999.0   83.9
  36   11:00   40.7    55    6.7   159     18.6   999.0    0.01     345    999.0   83.9
  36   11:10   39.4    58    8.2   161     18.8   999.0    0.01     378    999.0   83.9
  36   11:20   40.5    57    8.5   166     19.8   999.0    0.00     660    999.0   83.9
  36   11:30   40.9    56    7.4   169     18.8   999.0    0.02     655    999.0   83.9
  36   11:40   41.5    56    4.5   159     12.8   999.0    0.01     684    999.0   83.9
  36   11:50   42.5    55    4.2   151     12.4   999.0    0.01     633    999.0   83.9
  36   12:00   42.7    52    3.7   141     10.4   999.0    0.02     631    999.0   83.9
  36   12:10   43.9    50    3.8   161     11.5   999.0    0.01     631    999.0   83.9
  36   12:20   43.7    46    5.9   170     14.3   999.0    0.02     631    999.0   83.9
  36   12:30   43.5    46    7.8   167     16.8   999.0    0.02     631    999.0   83.9
  36   12:40   44.0    46    6.0   139     17.4   999.0    0.01     633    999.0   83.9
  36   12:50   44.2    45    5.7   120     16.3   999.0    0.02     612    999.0   83.9
  36   13:00   44.4    44    6.7   142     16.9   999.0    0.02     576    999.0   83.9
  36   13:10   44.4    46    7.1   131     17.2   999.0    0.02     528    999.0   83.9
  36   13:20   44.2    49    7.3   121     20.8   999.0    0.02     529    999.0   83.9
  36   13:30   43.7    50    7.0   112     13.7   999.0    0.02     437    999.0   83.9
  36   13:40   43.2    53    4.9    98     12.6   999.0    0.01     369    999.0   83.9
  36   13:50   42.7    54    7.1   122     15.7   999.0    0.01     448    999.0   83.9
  36   14:00   42.5    53    7.4   120     13.6   999.0    0.02     442    999.0   83.9
  36   14:10   41.9    55    8.2   117     19.9   999.0    0.01     401    999.0   83.9
  36   14:20   42.2    52    6.9   110     13.8   999.0    0.01     422    999.0   83.9
  36   14:30   42.7    50    7.0   114     16.0   999.0    0.02     463    999.0   83.9
  36   14:40   42.9    48    7.4   124     16.0   999.0    0.01     449    999.0   83.9
  36   14:50   43.1    48    7.3   112     16.6   999.0    0.01     483    999.0   83.9
  36   15:00   42.4    48    8.2   121     17.1   999.0    0.01     422    999.0   83.9
  36   15:10   42.3    48    7.3   116     14.9   999.0    0.00     390    999.0   83.9
  36   15:20   42.0    48    7.6   121     17.4   999.0    0.01     366    999.0   83.9
  36   15:30   41.9    48    7.9   124     15.2   999.0    0.01     328    999.0   83.9
  36   15:40   41.4    50    6.8   118     14.9   999.0    0.00     304    999.0   83.9
  36   15:50   40.9    49    8.3   123     14.8   999.0    0.01     122    999.0   83.9
  36   16:00   40.3    50    8.0   122     14.9   999.0    0.00      38    999.0   83.9
  36   16:10   40.0    50    8.7   117     21.8   999.0    0.00      29    999.0   83.9
  36   16:20   39.7    49    9.7   123     18.5   999.0    0.01      24    999.0   83.9
  36   16:30   39.1    50    9.3   117     20.8   999.0    0.00      17    999.0   83.9
  36   16:40   38.7    48    9.6   109     19.5   999.0    0.00      19    999.0   83.9
  36   16:50   38.4    46   10.3   111     19.5   999.0    0.00      33    999.0   83.9
  36   17:00   37.8    47    9.8   114     18.4   999.0    0.00      23    999.0   83.9
  36   17:10   36.7    56   11.2   118     18.3   999.0    0.00      11    999.0   83.9
  36   17:20   35.6    61   11.9   127     23.8   999.0    0.00       5    999.0   83.9
  36   17:30   35.0    63   10.9   122     17.9   999.0    0.00       2    999.0   83.9
  36   17:40   34.7    65   10.0   117     18.6   999.0    0.00       1    999.0   83.9
  36   17:50   34.5    64    7.1   110     16.4   999.0    0.00       0    999.0   83.9
  36   18:00   35.8    51    7.7   143     18.4   999.0    0.00       0    999.0   83.9
  36   18:10   37.2    41   11.0   146     26.6   999.0    0.00       0    999.0   83.9
  36   18:20   37.2    43    7.5   139     14.8   999.0    0.00       0    999.0   83.9
  36   18:30   37.4    39    5.4   137     15.9   999.0    0.00       0    999.0   83.9
  36   18:40   37.4    43   11.8   150     28.6   999.0    0.00       0    999.0   83.9
  36   18:50   36.3    58    7.3    96     15.5   999.0    0.00       0    999.0   83.9
  36   19:00   34.4    64   10.2   125     26.4   999.0    0.00       0    999.0   83.9
  36   19:10   32.9    70    9.1   131     18.3   999.0    0.00       0    999.0   83.9
  36   19:20   32.5    73   10.0   123     18.5   999.0    0.00       0    999.0   83.9
  36   19:30   29.5    90    7.5   134     16.4   999.0    0.00       0    999.0   83.9
  36   19:40   28.7    97    5.3   117     12.7   999.0    0.00       0    999.0   83.9
  36   19:50   28.7   100    5.1   123     14.2   999.0    0.00       0    999.0   83.9
  36   20:00   28.5   100    6.2   158     16.8   999.0    0.00       0    999.0   83.9
  36   20:10   28.7   101    7.0   143     19.6   999.0    0.00       0    999.0   83.9
  36   20:20   28.9   102    6.1   137     17.9   999.0    0.00       0    999.0   83.9
  36   20:30   29.0   102    4.9   148     18.0   999.0    0.00       0    999.0   83.9
  36   20:40   29.1   102    4.7   145     14.1   999.0    0.00       0    999.0   83.9
  36   20:50   29.3   103    8.6   162     26.0   999.0    0.00       0    999.0   83.9

Return to Incline Creek graphs page.


Western Regional Climate Center,wrcc@dri.edu